Terminal Aerodrome Forecast
Issued by NWS

Home | Current Version | Previous Version | Text Only | Print | Product List | Glossary On
Versions: 1 2 3 4 5 6 7 8 9 10 11 12 13 14 15
000
FTAK31 PANC 211740
TAFATK
TAF
PATK 211740Z 2118/2218 36004KT P6SM BKN120
     FM212100 03009G18KT P6SM BKN080
     FM220200 36005KT P6SM SCT050 BKN120=

USA.gov is the U.S. government's official web portal to all federal, state and local government web resources and services.